Frankfurt am Main, Germany

3:22 PM CET on December 11, 2016 (GMT +0100)
Karlsbader Straße | | Change Station

Elev 367 ft 50.06 °N, 8.54 °E | Updated 12 minutes ago

Rain
Rain
48.9 °F
Feels Like 49 °F
N
0.6
Wind Variable Wind from East
Gusts 1.2 mph

Today
High -- | Low -- °F
--% Chance of Precip.
Yesterday
High -- | Low -- °F
Precip. -- in
Pressure 30.19 in
Visibility 6.2 miles
Clouds Mostly Cloudy 3600 ft
Overcast 5000 ft
Windchill 49 °F
Dew Point 42 °F
Humidity 77%
Rainfall Not available.
Snow Depth Not available.
8:14 AM 4:23 PM
Waxing Gibbous, 91% visible
METAR ETOU 111358Z AUTO 28009KT 9999 BKN036 OVC050 10/04 A3017 RMK AO2 SLP223 T00950038
Pressure 30.19 in
Visibility 6.2 miles
Clouds Mostly Cloudy 3600 ft
Overcast 5000 ft
Windchill 49 °F
Dew Point 42 °F
Humidity 77%
Rainfall Not available.
Snow Depth Not available.
8:14 AM 4:23 PM
Waxing Gibbous, 91% visible
METAR ETOU 111358Z AUTO 28009KT 9999 BKN036 OVC050 10/04 A3017 RMK AO2 SLP223 T00950038

10-Day Weather Forecast

×

Almanac

Astronomy

Dec. 11, 2016 Rise Set
Actual Time
Civil Twilight
Nautical Twilight
Astronomical Twilight
Moon
Length of Visible Light
Length of Day
Tomorrow will be .
, % of the Moon is Illuminated

Today's Extremes

Country Highs Country Lows

Community

WunderPhotos

Upload Photos

1,956,710 photos uploaded!

WunderBlog® & News

Nearby

Air Quality

  Air Quality AQ Index Pollutant
Not available.

Snow Depth

Station Depth Elevation

Earthquake Activity

City Distance Mag. Time & Date
Minimum magnitude displayed is 2.5.

Coastal Water Temperatures

Place Temperature

Stations

Nearby Weather Stations

Station Location Temp. Windchill Dew Point Humidity Wind Precip. Elev Updated Type